sensor_id;sensor_type;location;lat;lon;timestamp;P1;durP1;ratioP1;P2;durP2;ratioP2
549;SDS011;20066;48.764;9.176;2022-09-03T00:02:24;8.53;;;3.33;;
549;SDS011;20066;48.764;9.176;2022-09-03T00:05:00;6.43;;;3.93;;
549;SDS011;20066;48.764;9.176;2022-09-03T00:07:34;5.60;;;3.10;;
549;SDS011;20066;48.764;9.176;2022-09-03T00:10:08;13.73;;;3.63;;
549;SDS011;20066;48.764;9.176;2022-09-03T00:12:42;6.90;;;3.87;;
549;SDS011;20066;48.764;9.176;2022-09-03T00:15:11;6.30;;;4.20;;
549;SDS011;20066;48.764;9.176;2022-09-03T00:17:43;6.00;;;4.00;;
549;SDS011;20066;48.764;9.176;2022-09-03T00:20:15;7.63;;;3.60;;
549;SDS011;20066;48.764;9.176;2022-09-03T00:22:45;7.03;;;3.80;;
549;SDS011;20066;48.764;9.176;2022-09-03T00:25:18;8.90;;;3.10;;
549;SDS011;20066;48.764;9.176;2022-09-03T00:27:52;6.90;;;2.63;;
549;SDS011;20066;48.764;9.176;2022-09-03T00:30:23;4.60;;;2.80;;
549;SDS011;20066;48.764;9.176;2022-09-03T00:32:54;4.97;;;2.73;;
549;SDS011;20066;48.764;9.176;2022-09-03T00:35:26;4.70;;;2.83;;
549;SDS011;20066;48.764;9.176;2022-09-03T00:37:57;4.57;;;2.97;;
549;SDS011;20066;48.764;9.176;2022-09-03T00:40:41;4.10;;;2.90;;
549;SDS011;20066;48.764;9.176;2022-09-03T00:43:22;5.83;;;2.83;;
549;SDS011;20066;48.764;9.176;2022-09-03T00:46:02;15.07;;;3.20;;
549;SDS011;20066;48.764;9.176;2022-09-03T00:48:40;4.23;;;2.97;;
549;SDS011;20066;48.764;9.176;2022-09-03T00:51:33;5.13;;;2.97;;
549;SDS011;20066;48.764;9.176;2022-09-03T00:54:08;7.77;;;3.47;;
549;SDS011;20066;48.764;9.176;2022-09-03T00:56:47;4.80;;;2.93;;
549;SDS011;20066;48.764;9.176;2022-09-03T00:59:24;5.23;;;2.50;;
549;SDS011;20066;48.764;9.176;2022-09-03T01:02:04;3.90;;;2.60;;
549;SDS011;20066;48.764;9.176;2022-09-03T01:04:46;6.50;;;2.67;;
549;SDS011;20066;48.764;9.176;2022-09-03T01:07:26;4.80;;;2.97;;
549;SDS011;20066;48.764;9.176;2022-09-03T01:10:07;4.73;;;2.80;;
549;SDS011;20066;48.764;9.176;2022-09-03T01:12:46;7.40;;;2.87;;
549;SDS011;20066;48.764;9.176;2022-09-03T01:15:22;3.80;;;2.67;;
549;SDS011;20066;48.764;9.176;2022-09-03T01:18:00;4.43;;;2.80;;
549;SDS011;20066;48.764;9.176;2022-09-03T01:20:42;5.27;;;3.17;;
549;SDS011;20066;48.764;9.176;2022-09-03T01:23:30;4.70;;;2.70;;
549;SDS011;20066;48.764;9.176;2022-09-03T01:26:15;3.90;;;2.60;;
549;SDS011;20066;48.764;9.176;2022-09-03T01:28:59;3.73;;;2.50;;
549;SDS011;20066;48.764;9.176;2022-09-03T01:31:35;7.43;;;2.70;;
549;SDS011;20066;48.764;9.176;2022-09-03T01:34:15;5.00;;;2.30;;
549;SDS011;20066;48.764;9.176;2022-09-03T01:36:53;8.13;;;2.67;;
549;SDS011;20066;48.764;9.176;2022-09-03T01:39:31;5.60;;;2.60;;
549;SDS011;20066;48.764;9.176;2022-09-03T01:42:11;5.47;;;2.40;;
549;SDS011;20066;48.764;9.176;2022-09-03T01:44:56;4.30;;;2.83;;
549;SDS011;20066;48.764;9.176;2022-09-03T01:47:52;4.73;;;2.93;;
549;SDS011;20066;48.764;9.176;2022-09-03T01:50:33;4.30;;;2.30;;
549;SDS011;20066;48.764;9.176;2022-09-03T01:53:07;4.30;;;2.77;;
549;SDS011;20066;48.764;9.176;2022-09-03T01:55:43;5.00;;;2.70;;
549;SDS011;20066;48.764;9.176;2022-09-03T01:58:27;4.53;;;2.37;;
549;SDS011;20066;48.764;9.176;2022-09-03T02:01:00;5.27;;;2.80;;
549;SDS011;20066;48.764;9.176;2022-09-03T02:03:33;3.90;;;2.30;;
549;SDS011;20066;48.764;9.176;2022-09-03T02:06:06;6.50;;;2.60;;
549;SDS011;20066;48.764;9.176;2022-09-03T02:08:35;5.10;;;2.53;;
549;SDS011;20066;48.764;9.176;2022-09-03T02:11:03;4.20;;;2.40;;
549;SDS011;20066;48.764;9.176;2022-09-03T02:13:35;7.03;;;2.80;;
549;SDS011;20066;48.764;9.176;2022-09-03T02:16:09;9.13;;;2.60;;
549;SDS011;20066;48.764;9.176;2022-09-03T02:18:40;3.73;;;2.60;;
549;SDS011;20066;48.764;9.176;2022-09-03T02:21:12;5.00;;;2.70;;
549;SDS011;20066;48.764;9.176;2022-09-03T02:23:42;3.10;;;2.20;;
549;SDS011;20066;48.764;9.176;2022-09-03T02:26:10;5.07;;;2.80;;
549;SDS011;20066;48.764;9.176;2022-09-03T02:28:40;4.13;;;2.50;;
549;SDS011;20066;48.764;9.176;2022-09-03T02:31:09;4.50;;;2.47;;
549;SDS011;20066;48.764;9.176;2022-09-03T02:33:37;4.47;;;2.33;;
549;SDS011;20066;48.764;9.176;2022-09-03T02:36:08;6.90;;;2.23;;
549;SDS011;20066;48.764;9.176;2022-09-03T02:38:39;6.03;;;2.70;;
549;SDS011;20066;48.764;9.176;2022-09-03T02:41:08;5.87;;;2.77;;
549;SDS011;20066;48.764;9.176;2022-09-03T02:43:40;5.60;;;2.83;;
549;SDS011;20066;48.764;9.176;2022-09-03T02:46:16;5.83;;;2.60;;
549;SDS011;20066;48.764;9.176;2022-09-03T02:48:47;3.70;;;2.30;;
549;SDS011;20066;48.764;9.176;2022-09-03T02:51:15;3.37;;;2.30;;
549;SDS011;20066;48.764;9.176;2022-09-03T02:53:42;4.10;;;2.00;;
549;SDS011;20066;48.764;9.176;2022-09-03T02:56:10;6.27;;;2.23;;
549;SDS011;20066;48.764;9.176;2022-09-03T02:58:39;3.73;;;2.57;;
549;SDS011;20066;48.764;9.176;2022-09-03T03:01:07;5.97;;;2.57;;
549;SDS011;20066;48.764;9.176;2022-09-03T03:03:36;3.83;;;2.10;;
549;SDS011;20066;48.764;9.176;2022-09-03T03:06:04;5.03;;;2.40;;
549;SDS011;20066;48.764;9.176;2022-09-03T03:08:32;3.30;;;2.20;;
549;SDS011;20066;48.764;9.176;2022-09-03T03:11:00;3.40;;;2.23;;
549;SDS011;20066;48.764;9.176;2022-09-03T03:13:29;5.50;;;2.33;;
549;SDS011;20066;48.764;9.176;2022-09-03T03:15:57;4.70;;;2.60;;
549;SDS011;20066;48.764;9.176;2022-09-03T03:18:27;3.70;;;2.80;;
549;SDS011;20066;48.764;9.176;2022-09-03T03:20:57;4.00;;;2.53;;
549;SDS011;20066;48.764;9.176;2022-09-03T03:23:30;3.20;;;2.00;;
549;SDS011;20066;48.764;9.176;2022-09-03T03:25:59;5.30;;;2.37;;
549;SDS011;20066;48.764;9.176;2022-09-03T03:28:27;4.67;;;2.70;;
549;SDS011;20066;48.764;9.176;2022-09-03T03:30:57;3.80;;;2.10;;
549;SDS011;20066;48.764;9.176;2022-09-03T03:33:25;4.30;;;2.40;;
549;SDS011;20066;48.764;9.176;2022-09-03T03:35:53;4.73;;;2.27;;
549;SDS011;20066;48.764;9.176;2022-09-03T03:38:22;4.20;;;2.50;;
549;SDS011;20066;48.764;9.176;2022-09-03T03:40:50;3.60;;;2.37;;
549;SDS011;20066;48.764;9.176;2022-09-03T03:43:18;3.57;;;2.60;;
549;SDS011;20066;48.764;9.176;2022-09-03T03:45:54;3.23;;;2.13;;
549;SDS011;20066;48.764;9.176;2022-09-03T03:48:23;3.40;;;2.17;;
549;SDS011;20066;48.764;9.176;2022-09-03T03:50:51;4.43;;;2.33;;
549;SDS011;20066;48.764;9.176;2022-09-03T03:53:18;4.47;;;2.63;;
549;SDS011;20066;48.764;9.176;2022-09-03T03:55:54;9.00;;;2.50;;
549;SDS011;20066;48.764;9.176;2022-09-03T03:58:22;3.40;;;2.40;;
549;SDS011;20066;48.764;9.176;2022-09-03T04:00:50;4.87;;;2.33;;
549;SDS011;20066;48.764;9.176;2022-09-03T04:03:19;4.50;;;2.50;;
549;SDS011;20066;48.764;9.176;2022-09-03T04:05:56;4.10;;;2.50;;
549;SDS011;20066;48.764;9.176;2022-09-03T04:08:25;7.30;;;2.67;;
549;SDS011;20066;48.764;9.176;2022-09-03T04:10:57;4.63;;;2.23;;
549;SDS011;20066;48.764;9.176;2022-09-03T04:13:27;5.07;;;2.87;;
549;SDS011;20066;48.764;9.176;2022-09-03T04:15:59;3.93;;;2.50;;
549;SDS011;20066;48.764;9.176;2022-09-03T04:18:27;6.57;;;2.00;;
549;SDS011;20066;48.764;9.176;2022-09-03T04:20:59;3.63;;;2.37;;
549;SDS011;20066;48.764;9.176;2022-09-03T04:23:30;3.50;;;2.30;;
549;SDS011;20066;48.764;9.176;2022-09-03T04:25:59;6.03;;;2.47;;
549;SDS011;20066;48.764;9.176;2022-09-03T04:28:27;5.80;;;2.40;;
549;SDS011;20066;48.764;9.176;2022-09-03T04:30:59;4.33;;;2.60;;
549;SDS011;20066;48.764;9.176;2022-09-03T04:33:27;4.23;;;2.47;;
549;SDS011;20066;48.764;9.176;2022-09-03T04:36:02;4.70;;;2.20;;
549;SDS011;20066;48.764;9.176;2022-09-03T04:38:31;7.80;;;2.70;;
549;SDS011;20066;48.764;9.176;2022-09-03T04:41:01;3.53;;;2.23;;
549;SDS011;20066;48.764;9.176;2022-09-03T04:43:29;7.30;;;2.60;;
549;SDS011;20066;48.764;9.176;2022-09-03T04:45:57;5.13;;;2.40;;
549;SDS011;20066;48.764;9.176;2022-09-03T04:48:25;6.73;;;2.50;;
549;SDS011;20066;48.764;9.176;2022-09-03T04:51:00;4.70;;;2.30;;
549;SDS011;20066;48.764;9.176;2022-09-03T04:53:30;4.37;;;2.93;;
549;SDS011;20066;48.764;9.176;2022-09-03T04:56:01;3.90;;;2.70;;
549;SDS011;20066;48.764;9.176;2022-09-03T04:58:29;7.63;;;2.67;;
549;SDS011;20066;48.764;9.176;2022-09-03T05:00:57;6.97;;;2.60;;
549;SDS011;20066;48.764;9.176;2022-09-03T05:03:25;9.20;;;2.80;;
549;SDS011;20066;48.764;9.176;2022-09-03T05:05:53;7.70;;;3.30;;
549;SDS011;20066;48.764;9.176;2022-09-03T05:08:22;3.40;;;2.30;;
549;SDS011;20066;48.764;9.176;2022-09-03T05:10:56;3.70;;;2.30;;
549;SDS011;20066;48.764;9.176;2022-09-03T05:13:26;4.37;;;2.50;;
549;SDS011;20066;48.764;9.176;2022-09-03T05:15:57;4.63;;;3.00;;
549;SDS011;20066;48.764;9.176;2022-09-03T05:18:26;6.20;;;2.93;;
549;SDS011;20066;48.764;9.176;2022-09-03T05:20:57;3.70;;;2.67;;
549;SDS011;20066;48.764;9.176;2022-09-03T05:23:26;4.33;;;2.57;;
549;SDS011;20066;48.764;9.176;2022-09-03T05:25:54;4.60;;;2.80;;
549;SDS011;20066;48.764;9.176;2022-09-03T05:28:23;8.10;;;3.67;;
549;SDS011;20066;48.764;9.176;2022-09-03T05:30:58;4.63;;;2.60;;
549;SDS011;20066;48.764;9.176;2022-09-03T05:33:26;3.57;;;2.57;;
549;SDS011;20066;48.764;9.176;2022-09-03T05:38:28;5.83;;;2.90;;
549;SDS011;20066;48.764;9.176;2022-09-03T05:40:57;4.37;;;3.00;;
549;SDS011;20066;48.764;9.176;2022-09-03T05:43:26;4.50;;;2.83;;
549;SDS011;20066;48.764;9.176;2022-09-03T05:45:58;4.40;;;3.10;;
549;SDS011;20066;48.764;9.176;2022-09-03T05:48:26;6.03;;;3.10;;
549;SDS011;20066;48.764;9.176;2022-09-03T05:50:58;20.63;;;8.80;;
549;SDS011;20066;48.764;9.176;2022-09-03T05:53:27;5.23;;;3.23;;
549;SDS011;20066;48.764;9.176;2022-09-03T05:55:55;5.50;;;3.03;;
549;SDS011;20066;48.764;9.176;2022-09-03T05:58:24;6.80;;;3.23;;
549;SDS011;20066;48.764;9.176;2022-09-03T06:00:53;5.00;;;3.27;;
549;SDS011;20066;48.764;9.176;2022-09-03T06:03:21;7.00;;;2.87;;
549;SDS011;20066;48.764;9.176;2022-09-03T06:05:49;6.80;;;3.30;;
549;SDS011;20066;48.764;9.176;2022-09-03T06:08:17;4.53;;;2.70;;
549;SDS011;20066;48.764;9.176;2022-09-03T06:10:45;5.10;;;3.40;;
549;SDS011;20066;48.764;9.176;2022-09-03T06:13:13;8.73;;;3.10;;
549;SDS011;20066;48.764;9.176;2022-09-03T06:15:41;7.93;;;3.60;;
549;SDS011;20066;48.764;9.176;2022-09-03T06:18:10;7.47;;;3.50;;
549;SDS011;20066;48.764;9.176;2022-09-03T06:20:38;9.90;;;3.50;;
549;SDS011;20066;48.764;9.176;2022-09-03T06:23:05;6.23;;;3.83;;
549;SDS011;20066;48.764;9.176;2022-09-03T06:25:33;7.87;;;3.60;;
549;SDS011;20066;48.764;9.176;2022-09-03T06:28:01;9.90;;;3.27;;
549;SDS011;20066;48.764;9.176;2022-09-03T06:30:29;4.70;;;3.47;;
549;SDS011;20066;48.764;9.176;2022-09-03T06:32:57;4.10;;;3.10;;
549;SDS011;20066;48.764;9.176;2022-09-03T06:35:26;5.40;;;3.50;;
549;SDS011;20066;48.764;9.176;2022-09-03T06:37:56;6.93;;;3.30;;
549;SDS011;20066;48.764;9.176;2022-09-03T06:40:25;7.13;;;3.80;;
549;SDS011;20066;48.764;9.176;2022-09-03T06:42:54;5.20;;;3.87;;
549;SDS011;20066;48.764;9.176;2022-09-03T06:45:24;7.47;;;3.50;;
549;SDS011;20066;48.764;9.176;2022-09-03T06:47:53;6.57;;;4.10;;
549;SDS011;20066;48.764;9.176;2022-09-03T06:50:21;10.93;;;3.77;;
549;SDS011;20066;48.764;9.176;2022-09-03T06:52:51;8.53;;;3.53;;
549;SDS011;20066;48.764;9.176;2022-09-03T06:55:20;7.70;;;3.63;;
549;SDS011;20066;48.764;9.176;2022-09-03T06:57:48;8.07;;;3.70;;
549;SDS011;20066;48.764;9.176;2022-09-03T07:00:19;5.80;;;4.00;;
549;SDS011;20066;48.764;9.176;2022-09-03T07:02:54;8.30;;;3.77;;
549;SDS011;20066;48.764;9.176;2022-09-03T07:05:24;8.73;;;4.30;;
549;SDS011;20066;48.764;9.176;2022-09-03T07:07:55;11.40;;;4.07;;
549;SDS011;20066;48.764;9.176;2022-09-03T07:10:23;7.37;;;3.73;;
549;SDS011;20066;48.764;9.176;2022-09-03T07:12:53;5.03;;;4.07;;
549;SDS011;20066;48.764;9.176;2022-09-03T07:15:21;5.80;;;4.43;;
549;SDS011;20066;48.764;9.176;2022-09-03T07:17:49;5.90;;;4.00;;
549;SDS011;20066;48.764;9.176;2022-09-03T07:20:16;11.20;;;4.97;;
549;SDS011;20066;48.764;9.176;2022-09-03T07:22:45;8.10;;;4.50;;
549;SDS011;20066;48.764;9.176;2022-09-03T07:25:15;8.87;;;4.60;;
549;SDS011;20066;48.764;9.176;2022-09-03T07:27:42;7.07;;;4.30;;
549;SDS011;20066;48.764;9.176;2022-09-03T07:30:10;7.13;;;4.17;;
549;SDS011;20066;48.764;9.176;2022-09-03T07:32:39;7.27;;;4.70;;
549;SDS011;20066;48.764;9.176;2022-09-03T07:35:09;7.53;;;4.87;;
549;SDS011;20066;48.764;9.176;2022-09-03T07:37:36;6.53;;;4.53;;
549;SDS011;20066;48.764;9.176;2022-09-03T07:40:07;10.73;;;4.30;;
549;SDS011;20066;48.764;9.176;2022-09-03T07:42:37;7.00;;;4.10;;
549;SDS011;20066;48.764;9.176;2022-09-03T07:45:06;8.43;;;4.30;;
549;SDS011;20066;48.764;9.176;2022-09-03T07:47:35;9.20;;;4.47;;
549;SDS011;20066;48.764;9.176;2022-09-03T07:50:03;8.60;;;4.27;;
549;SDS011;20066;48.764;9.176;2022-09-03T07:52:32;8.80;;;4.93;;
549;SDS011;20066;48.764;9.176;2022-09-03T07:54:59;5.70;;;4.33;;
549;SDS011;20066;48.764;9.176;2022-09-03T07:57:28;7.50;;;4.00;;
549;SDS011;20066;48.764;9.176;2022-09-03T07:59:57;6.47;;;4.30;;
549;SDS011;20066;48.764;9.176;2022-09-03T08:02:25;5.47;;;4.17;;
549;SDS011;20066;48.764;9.176;2022-09-03T08:04:52;8.13;;;4.60;;
549;SDS011;20066;48.764;9.176;2022-09-03T08:07:20;7.30;;;4.80;;
549;SDS011;20066;48.764;9.176;2022-09-03T08:09:48;8.60;;;4.17;;
549;SDS011;20066;48.764;9.176;2022-09-03T08:12:16;8.20;;;4.73;;
549;SDS011;20066;48.764;9.176;2022-09-03T08:14:44;7.03;;;5.00;;
549;SDS011;20066;48.764;9.176;2022-09-03T08:17:13;8.57;;;4.80;;
549;SDS011;20066;48.764;9.176;2022-09-03T08:19:41;16.30;;;4.37;;
549;SDS011;20066;48.764;9.176;2022-09-03T08:22:11;8.07;;;5.37;;
549;SDS011;20066;48.764;9.176;2022-09-03T08:24:39;5.60;;;4.10;;
549;SDS011;20066;48.764;9.176;2022-09-03T08:27:07;6.83;;;4.20;;
549;SDS011;20066;48.764;9.176;2022-09-03T08:29:35;12.93;;;4.17;;
549;SDS011;20066;48.764;9.176;2022-09-03T08:32:03;7.03;;;4.33;;
549;SDS011;20066;48.764;9.176;2022-09-03T08:34:32;9.77;;;4.27;;
549;SDS011;20066;48.764;9.176;2022-09-03T08:37:01;7.40;;;4.57;;
549;SDS011;20066;48.764;9.176;2022-09-03T08:39:28;8.53;;;3.87;;
549;SDS011;20066;48.764;9.176;2022-09-03T08:44:59;6.60;;;4.17;;
549;SDS011;20066;48.764;9.176;2022-09-03T08:47:29;10.27;;;3.97;;
549;SDS011;20066;48.764;9.176;2022-09-03T08:50:04;9.30;;;5.00;;
549;SDS011;20066;48.764;9.176;2022-09-03T08:52:39;6.17;;;4.07;;
549;SDS011;20066;48.764;9.176;2022-09-03T08:55:17;6.73;;;3.63;;
549;SDS011;20066;48.764;9.176;2022-09-03T08:57:50;9.03;;;4.20;;
549;SDS011;20066;48.764;9.176;2022-09-03T09:00:22;8.70;;;4.73;;
549;SDS011;20066;48.764;9.176;2022-09-03T09:02:53;8.03;;;4.90;;
549;SDS011;20066;48.764;9.176;2022-09-03T09:05:37;15.30;;;4.97;;
549;SDS011;20066;48.764;9.176;2022-09-03T09:08:13;6.80;;;4.67;;
549;SDS011;20066;48.764;9.176;2022-09-03T09:10:48;9.60;;;4.20;;
549;SDS011;20066;48.764;9.176;2022-09-03T09:13:25;7.10;;;4.10;;
549;SDS011;20066;48.764;9.176;2022-09-03T09:16:00;6.17;;;4.00;;
549;SDS011;20066;48.764;9.176;2022-09-03T09:18:40;7.50;;;4.20;;
549;SDS011;20066;48.764;9.176;2022-09-03T09:21:26;6.27;;;4.47;;
549;SDS011;20066;48.764;9.176;2022-09-03T09:23:56;7.07;;;3.90;;
549;SDS011;20066;48.764;9.176;2022-09-03T09:26:29;6.57;;;4.00;;
549;SDS011;20066;48.764;9.176;2022-09-03T09:29:00;10.33;;;5.33;;
549;SDS011;20066;48.764;9.176;2022-09-03T09:31:35;6.93;;;4.67;;
549;SDS011;20066;48.764;9.176;2022-09-03T09:34:05;7.50;;;4.87;;
549;SDS011;20066;48.764;9.176;2022-09-03T09:36:36;6.20;;;4.27;;
549;SDS011;20066;48.764;9.176;2022-09-03T09:39:10;6.77;;;5.20;;
549;SDS011;20066;48.764;9.176;2022-09-03T09:41:41;9.77;;;5.00;;
549;SDS011;20066;48.764;9.176;2022-09-03T09:44:17;6.07;;;4.40;;
549;SDS011;20066;48.764;9.176;2022-09-03T09:46:46;8.00;;;4.10;;
549;SDS011;20066;48.764;9.176;2022-09-03T09:49:24;5.67;;;4.23;;
549;SDS011;20066;48.764;9.176;2022-09-03T09:52:03;7.20;;;4.50;;
549;SDS011;20066;48.764;9.176;2022-09-03T09:54:34;7.33;;;4.57;;
549;SDS011;20066;48.764;9.176;2022-09-03T09:57:02;6.83;;;4.97;;
549;SDS011;20066;48.764;9.176;2022-09-03T09:59:32;9.03;;;5.20;;
549;SDS011;20066;48.764;9.176;2022-09-03T10:02:06;10.60;;;5.43;;
549;SDS011;20066;48.764;9.176;2022-09-03T10:04:47;5.97;;;4.07;;
549;SDS011;20066;48.764;9.176;2022-09-03T10:07:19;6.30;;;4.70;;
549;SDS011;20066;48.764;9.176;2022-09-03T10:09:57;7.60;;;4.93;;
549;SDS011;20066;48.764;9.176;2022-09-03T10:12:27;10.63;;;4.70;;
549;SDS011;20066;48.764;9.176;2022-09-03T10:15:02;10.60;;;4.73;;
549;SDS011;20066;48.764;9.176;2022-09-03T10:17:41;10.93;;;5.13;;
549;SDS011;20066;48.764;9.176;2022-09-03T10:20:17;8.30;;;4.73;;
549;SDS011;20066;48.764;9.176;2022-09-03T10:22:58;6.33;;;4.80;;
549;SDS011;20066;48.764;9.176;2022-09-03T10:25:34;6.83;;;4.87;;
549;SDS011;20066;48.764;9.176;2022-09-03T10:28:08;6.97;;;5.23;;
549;SDS011;20066;48.764;9.176;2022-09-03T10:30:46;8.03;;;5.50;;
549;SDS011;20066;48.764;9.176;2022-09-03T10:33:25;11.33;;;5.20;;
549;SDS011;20066;48.764;9.176;2022-09-03T10:36:02;11.03;;;5.57;;
549;SDS011;20066;48.764;9.176;2022-09-03T10:38:38;7.47;;;5.10;;
549;SDS011;20066;48.764;9.176;2022-09-03T10:41:15;7.37;;;4.60;;
549;SDS011;20066;48.764;9.176;2022-09-03T10:44:02;8.23;;;5.20;;
549;SDS011;20066;48.764;9.176;2022-09-03T10:46:47;8.23;;;5.90;;
549;SDS011;20066;48.764;9.176;2022-09-03T10:49:28;11.57;;;5.07;;
549;SDS011;20066;48.764;9.176;2022-09-03T10:52:07;10.90;;;5.23;;
549;SDS011;20066;48.764;9.176;2022-09-03T10:54:45;9.40;;;4.67;;
549;SDS011;20066;48.764;9.176;2022-09-03T10:57:26;9.53;;;5.00;;
549;SDS011;20066;48.764;9.176;2022-09-03T11:00:03;6.70;;;5.03;;
549;SDS011;20066;48.764;9.176;2022-09-03T11:02:53;7.13;;;4.77;;
549;SDS011;20066;48.764;9.176;2022-09-03T11:05:33;9.83;;;4.87;;
549;SDS011;20066;48.764;9.176;2022-09-03T11:08:04;7.07;;;4.87;;
549;SDS011;20066;48.764;9.176;2022-09-03T11:10:40;5.83;;;4.07;;
549;SDS011;20066;48.764;9.176;2022-09-03T11:13:11;8.10;;;5.20;;
549;SDS011;20066;48.764;9.176;2022-09-03T11:15:45;8.93;;;5.43;;
549;SDS011;20066;48.764;9.176;2022-09-03T11:18:17;9.57;;;4.70;;
549;SDS011;20066;48.764;9.176;2022-09-03T11:20:50;9.23;;;4.97;;
549;SDS011;20066;48.764;9.176;2022-09-03T11:23:22;6.73;;;5.30;;
549;SDS011;20066;48.764;9.176;2022-09-03T11:25:56;7.03;;;4.93;;
549;SDS011;20066;48.764;9.176;2022-09-03T11:28:29;7.27;;;5.13;;
549;SDS011;20066;48.764;9.176;2022-09-03T11:31:14;7.20;;;4.80;;
549;SDS011;20066;48.764;9.176;2022-09-03T11:33:58;9.90;;;5.30;;
549;SDS011;20066;48.764;9.176;2022-09-03T11:36:33;6.93;;;4.30;;
549;SDS011;20066;48.764;9.176;2022-09-03T11:39:11;6.90;;;4.87;;
549;SDS011;20066;48.764;9.176;2022-09-03T11:41:56;12.10;;;5.50;;
549;SDS011;20066;48.764;9.176;2022-09-03T11:44:34;8.67;;;5.07;;
549;SDS011;20066;48.764;9.176;2022-09-03T11:47:13;5.77;;;4.50;;
549;SDS011;20066;48.764;9.176;2022-09-03T11:49:43;7.33;;;4.60;;
549;SDS011;20066;48.764;9.176;2022-09-03T11:52:12;6.93;;;5.03;;
549;SDS011;20066;48.764;9.176;2022-09-03T11:54:51;6.83;;;4.60;;
549;SDS011;20066;48.764;9.176;2022-09-03T11:57:24;8.20;;;5.40;;
549;SDS011;20066;48.764;9.176;2022-09-03T12:00:05;9.93;;;4.70;;
549;SDS011;20066;48.764;9.176;2022-09-03T12:02:36;8.13;;;5.37;;
549;SDS011;20066;48.764;9.176;2022-09-03T12:05:13;9.13;;;5.47;;
549;SDS011;20066;48.764;9.176;2022-09-03T12:08:04;8.23;;;5.27;;
549;SDS011;20066;48.764;9.176;2022-09-03T12:10:47;7.70;;;5.37;;
549;SDS011;20066;48.764;9.176;2022-09-03T12:13:24;8.33;;;5.10;;
549;SDS011;20066;48.764;9.176;2022-09-03T12:16:19;11.10;;;6.00;;
549;SDS011;20066;48.764;9.176;2022-09-03T12:18:56;6.60;;;5.03;;
549;SDS011;20066;48.764;9.176;2022-09-03T12:21:36;7.40;;;5.53;;
549;SDS011;20066;48.764;9.176;2022-09-03T12:24:05;8.17;;;5.67;;
549;SDS011;20066;48.764;9.176;2022-09-03T12:26:39;8.27;;;5.37;;
549;SDS011;20066;48.764;9.176;2022-09-03T12:29:19;8.20;;;5.53;;
549;SDS011;20066;48.764;9.176;2022-09-03T12:31:53;7.80;;;4.30;;
549;SDS011;20066;48.764;9.176;2022-09-03T12:34:22;5.87;;;3.40;;
549;SDS011;20066;48.764;9.176;2022-09-03T12:36:51;6.80;;;4.00;;
549;SDS011;20066;48.764;9.176;2022-09-03T12:39:21;6.97;;;3.50;;
549;SDS011;20066;48.764;9.176;2022-09-03T12:42:11;7.30;;;3.30;;
549;SDS011;20066;48.764;9.176;2022-09-03T12:44:46;10.80;;;4.00;;
549;SDS011;20066;48.764;9.176;2022-09-03T12:47:15;8.67;;;2.83;;
549;SDS011;20066;48.764;9.176;2022-09-03T12:50:05;6.17;;;3.00;;
549;SDS011;20066;48.764;9.176;2022-09-03T12:52:37;4.53;;;2.80;;
549;SDS011;20066;48.764;9.176;2022-09-03T12:55:10;4.60;;;2.40;;
549;SDS011;20066;48.764;9.176;2022-09-03T12:57:48;7.40;;;3.00;;
549;SDS011;20066;48.764;9.176;2022-09-03T13:00:28;6.30;;;3.27;;
549;SDS011;20066;48.764;9.176;2022-09-03T13:02:59;5.30;;;2.97;;
549;SDS011;20066;48.764;9.176;2022-09-03T13:05:32;7.40;;;3.43;;
549;SDS011;20066;48.764;9.176;2022-09-03T13:08:03;8.10;;;3.30;;
549;SDS011;20066;48.764;9.176;2022-09-03T13:10:34;8.33;;;2.87;;
549;SDS011;20066;48.764;9.176;2022-09-03T13:13:16;5.73;;;3.43;;
549;SDS011;20066;48.764;9.176;2022-09-03T13:19:03;4.77;;;2.70;;
549;SDS011;20066;48.764;9.176;2022-09-03T13:21:40;5.77;;;3.43;;
549;SDS011;20066;48.764;9.176;2022-09-03T13:24:36;6.23;;;3.17;;
549;SDS011;20066;48.764;9.176;2022-09-03T13:27:22;6.83;;;2.50;;
549;SDS011;20066;48.764;9.176;2022-09-03T13:30:00;6.20;;;3.60;;
549;SDS011;20066;48.764;9.176;2022-09-03T13:32:36;5.03;;;2.90;;
549;SDS011;20066;48.764;9.176;2022-09-03T13:35:13;5.43;;;2.70;;
549;SDS011;20066;48.764;9.176;2022-09-03T13:37:48;14.57;;;3.10;;
549;SDS011;20066;48.764;9.176;2022-09-03T13:40:24;5.07;;;2.50;;
549;SDS011;20066;48.764;9.176;2022-09-03T13:43:01;5.60;;;2.40;;
549;SDS011;20066;48.764;9.176;2022-09-03T13:45:40;5.47;;;2.63;;
549;SDS011;20066;48.764;9.176;2022-09-03T13:48:14;6.60;;;2.83;;
549;SDS011;20066;48.764;9.176;2022-09-03T13:51:06;8.03;;;2.63;;
549;SDS011;20066;48.764;9.176;2022-09-03T13:53:46;9.23;;;3.53;;
549;SDS011;20066;48.764;9.176;2022-09-03T13:56:30;23.23;;;16.57;;
549;SDS011;20066;48.764;9.176;2022-09-03T13:59:04;16.60;;;8.73;;
549;SDS011;20066;48.764;9.176;2022-09-03T14:01:49;21.33;;;12.37;;
549;SDS011;20066;48.764;9.176;2022-09-03T14:04:28;16.30;;;9.43;;
549;SDS011;20066;48.764;9.176;2022-09-03T14:07:10;21.23;;;13.40;;
549;SDS011;20066;48.764;9.176;2022-09-03T14:09:46;6.53;;;2.90;;
549;SDS011;20066;48.764;9.176;2022-09-03T14:12:24;6.83;;;3.10;;
549;SDS011;20066;48.764;9.176;2022-09-03T14:15:02;7.50;;;3.80;;
549;SDS011;20066;48.764;9.176;2022-09-03T14:17:39;4.80;;;2.07;;
549;SDS011;20066;48.764;9.176;2022-09-03T14:20:18;18.97;;;9.63;;
549;SDS011;20066;48.764;9.176;2022-09-03T14:22:51;12.87;;;7.30;;
549;SDS011;20066;48.764;9.176;2022-09-03T14:25:23;10.73;;;2.10;;
549;SDS011;20066;48.764;9.176;2022-09-03T14:27:54;3.27;;;1.83;;
549;SDS011;20066;48.764;9.176;2022-09-03T14:30:40;2.90;;;1.70;;
549;SDS011;20066;48.764;9.176;2022-09-03T14:33:22;5.30;;;2.10;;
549;SDS011;20066;48.764;9.176;2022-09-03T14:36:04;5.00;;;2.20;;
549;SDS011;20066;48.764;9.176;2022-09-03T14:38:45;3.70;;;1.97;;
549;SDS011;20066;48.764;9.176;2022-09-03T14:41:35;3.93;;;1.70;;
549;SDS011;20066;48.764;9.176;2022-09-03T14:44:26;3.10;;;1.87;;
549;SDS011;20066;48.764;9.176;2022-09-03T14:47:10;3.27;;;1.67;;
549;SDS011;20066;48.764;9.176;2022-09-03T14:49:54;4.03;;;1.90;;
549;SDS011;20066;48.764;9.176;2022-09-03T14:52:56;2.93;;;1.70;;
549;SDS011;20066;48.764;9.176;2022-09-03T14:58:51;4.27;;;1.10;;
549;SDS011;20066;48.764;9.176;2022-09-03T15:01:31;4.03;;;1.70;;
549;SDS011;20066;48.764;9.176;2022-09-03T15:04:25;4.60;;;1.50;;
549;SDS011;20066;48.764;9.176;2022-09-03T15:07:07;2.60;;;1.33;;
549;SDS011;20066;48.764;9.176;2022-09-03T15:09:53;3.23;;;1.90;;
549;SDS011;20066;48.764;9.176;2022-09-03T15:12:27;4.50;;;1.67;;
549;SDS011;20066;48.764;9.176;2022-09-03T15:15:04;4.23;;;1.80;;
549;SDS011;20066;48.764;9.176;2022-09-03T15:17:40;5.70;;;1.73;;
549;SDS011;20066;48.764;9.176;2022-09-03T15:20:21;4.57;;;1.90;;
549;SDS011;20066;48.764;9.176;2022-09-03T15:26:17;2.77;;;1.53;;
549;SDS011;20066;48.764;9.176;2022-09-03T15:29:02;3.80;;;1.90;;
549;SDS011;20066;48.764;9.176;2022-09-03T15:31:43;5.00;;;1.90;;
549;SDS011;20066;48.764;9.176;2022-09-03T15:34:24;2.73;;;1.63;;
549;SDS011;20066;48.764;9.176;2022-09-03T15:37:09;4.00;;;1.90;;
549;SDS011;20066;48.764;9.176;2022-09-03T15:39:43;3.10;;;1.60;;
549;SDS011;20066;48.764;9.176;2022-09-03T15:42:16;2.90;;;1.73;;
549;SDS011;20066;48.764;9.176;2022-09-03T15:44:52;2.93;;;2.00;;
549;SDS011;20066;48.764;9.176;2022-09-03T15:47:29;3.60;;;1.87;;
549;SDS011;20066;48.764;9.176;2022-09-03T15:50:23;2.87;;;1.83;;
549;SDS011;20066;48.764;9.176;2022-09-03T15:52:58;2.83;;;1.80;;
549;SDS011;20066;48.764;9.176;2022-09-03T15:55:31;4.30;;;2.10;;
549;SDS011;20066;48.764;9.176;2022-09-03T15:58:06;3.90;;;1.93;;
549;SDS011;20066;48.764;9.176;2022-09-03T16:00:52;3.77;;;1.90;;
549;SDS011;20066;48.764;9.176;2022-09-03T16:03:33;4.10;;;1.80;;
549;SDS011;20066;48.764;9.176;2022-09-03T16:06:19;4.23;;;2.07;;
549;SDS011;20066;48.764;9.176;2022-09-03T16:08:54;4.60;;;2.50;;
549;SDS011;20066;48.764;9.176;2022-09-03T16:11:31;5.50;;;2.20;;
549;SDS011;20066;48.764;9.176;2022-09-03T16:14:05;5.10;;;2.10;;